• Join FlightAware (Why Join?)
  • Login
  • US Flag 
Trick or treat! (Boo!!) 
05:45PM EDT


 

Airport Tracker/Info


-or-


 

Live Flight TrackerFlight Track Log ✈ PJC79 ✈ 28-Jul-2013 ✈ KAVL - KMMU

Flight Track Log - Related Links

Times and Time Zones

All times are in EDT time to prevent confusion due to time zone crossing. See the PJC79 flight status page for this flight to view local times or setup timezone preferences in your user account.

Time Position Orientation Groundspeed Altitude Reporting Facility
EDT Latitude Longitude Course Direction KTS MPH feet Rate Location/Type
08:45PM 35.5233 -82.5358 18° North 200 230 7,300  Level Atlanta Center
08:46PM 35.5494 -82.4586 67° East 209 241 10,300 2,520 Climbing Atlanta Center
08:47PM 35.5694 -82.3792 73° East 239 275 12,400 2,160 Climbing Atlanta Center
08:48PM 35.5889 -82.2792 77° East 283 326 14,700 2,160 Climbing Atlanta Center
08:49PM 35.6103 -82.1767 76° East 303 349 16,800 1,980 Climbing Atlanta Center
08:50PM 35.5787 -81.9352 73° East  Level FlightAware Approximate
08:50PM 35.6336 -82.0661 75° East 320 368 18,700  Level Atlanta Center
08:51PM 35.6589 -81.9506 75° East 337 388 20,300 1,560 Climbing Atlanta Center
08:52PM 35.6817 -81.8350 76° East 347 399 21,900 1,620 Climbing Atlanta Center
08:53PM 35.7086 -81.7039 76° East 353 406 23,600 1,620 Climbing Atlanta Center
08:54PM 35.7333 -81.5803 76° East 358 412 25,200 1,560 Climbing Atlanta Center
08:55PM 35.7600 -81.4542 75° East 363 418 26,800 1,440 Climbing Atlanta Center
08:56PM 35.7883 -81.3228 75° East 380 437 28,100 1,200 Climbing Atlanta Center
08:57PM 35.8144 -81.1861 77° East 403 464 29,200 960 Climbing Atlanta Center
08:58PM 35.8386 -81.0597 77° East 408 470 30,100 1,020 Climbing Atlanta Center
08:59PM 35.8642 -80.9178 77° East 420 483 31,300 1,380 Climbing Atlanta Center
09:00PM 35.8919 -80.7783 76° East 420 483 32,900 1,800 Climbing Atlanta Center
09:01PM 35.9194 -80.6414 76° East 408 470 34,900 1,740 Climbing Atlanta Center
09:02PM 35.9428 -80.5069 78° East 403 464 36,400 1,080 Climbing Atlanta Center
09:04PM 35.9839 -80.3025 76° East 381 438 37,800 960 Climbing Washington Center
09:05PM 36.0083 -80.1625 78° East 405 466 38,900 1,020 Climbing Washington Center
09:06PM 36.0361 -80.0331 75° East 405 466 39,900 1,020 Climbing Washington Center
09:07PM 36.0886 -79.9103 62° Northeast 400 460 40,900 540 Climbing Washington Center
09:08PM 36.1575 -79.7906 55° Northeast 400 460 41,000  Climbing Washington Center
09:09PM 36.2244 -79.6628 57° Northeast 430 495 41,000  Level Washington Center
09:10PM 36.3022 -79.5275 54° Northeast 437 503 41,100  Climbing Washington Center
09:11PM 36.3589 -79.3886 63° Northeast 437 503 41,000 -60 Descending Washington Center
09:12PM 36.3983 -79.2564 70° East 445 512 41,000  Level Washington Center
09:13PM 36.4572 -79.1042 64° Northeast 450 518 41,000  Level Washington Center
09:14PM 36.5072 -78.9642 66° East 445 512 41,000  Level Washington Center
09:15PM 36.5569 -78.8217 66° East 445 512 41,000  Level Washington Center
09:16PM 36.6067 -78.6761 67° East 445 512 41,000  Level Washington Center
09:17PM 36.6625 -78.5361 64° Northeast 445 512 41,000  Level Washington Center
09:18PM 36.7336 -78.4325 49° Northeast 445 512 41,000  Level Washington Center
09:19PM 36.8178 -78.3214 47° Northeast 438 504 41,000  Level Washington Center
09:20PM 36.9197 -78.2417 32° Northeast 424 488 41,000  Level Washington Center
09:21PM 37.0364 -78.1522 31° Northeast 435 501 41,000  Level Washington Center
09:22PM 37.1272 -78.0900 29° Northeast 429 494 41,000  Level Washington Center
09:23PM 37.2289 -78.0125 31° Northeast 424 488 41,000  Level Washington Center
09:24PM 37.3392 -77.9272 32° Northeast 424 488 41,000  Level Washington Center
09:25PM 37.4467 -77.8678 24° Northeast 424 488 41,000  Level Washington Center
09:26PM 37.5481 -77.8000 28° Northeast 413 475 41,000  Level Washington Center
09:27PM 37.6456 -77.7189 33° Northeast 413 475 41,000  Level Washington Center
09:28PM 37.7408 -77.6322 36° Northeast 418 481 41,000  Level Washington Center
09:29PM 37.8381 -77.5586 31° Northeast 413 475 41,000  Level Washington Center
09:30PM 37.9447 -77.5431 North 380 437 41,000  Level Washington Center
09:31PM 38.0250 -77.6031 330° Northwest 329 379 41,000  Level Washington Center
09:32PM 38.0483 -77.6961 288° West 277 319 41,000  Level Washington Center
09:33PM 38.0111 -77.7978 245° Southwest 237 273 41,000  Level Washington Center
09:34PM 37.9314 -77.8244 195° South 226 260 41,000  Level Washington Center
09:35PM 37.8533 -77.7617 148° Southeast 245 282 41,000  Level Washington Center
09:36PM 37.8264 -77.6319 105° East 284 327 41,000 -1,080 Level Washington Center
09:37PM 37.8664 -77.4908 70° East 322 371 38,900 -2,280 Descending Washington Center
09:38PM 37.9658 -77.3881 39° Northeast 379 436 36,400 -2,400 Descending Washington Center
09:39PM 38.0628 -77.3167 30° Northeast 399 459 34,100 -2,460 Descending Washington Center
09:40PM 38.1747 -77.2267 32° Northeast 439 505 31,600 -2,340 Descending Washington Center
09:41PM 38.2947 -77.1208 35° Northeast 460 529 29,600 -1,620 Descending Washington Center
09:42PM 38.3856 -77.0406 35° Northeast 460 529 28,400 -1,440 Descending Washington Center
09:43PM 38.5014 -76.9367 35° Northeast 455 524 26,700 -1,560 Descending Washington Center
09:44PM 38.6025 -76.8428 36° Northeast 455 524 25,300 -1,380 Descending Washington Center
09:45PM 38.7036 -76.7436 37° Northeast 455 524 24,000 -660 Descending Washington Center
09:46PM 38.7961 -76.6383 42° Northeast 455 524 24,000  Level Washington Center
09:47PM 38.8847 -76.5383 41° Northeast 437 503 24,000  Level Washington Center
09:48PM 38.9772 -76.4300 42° Northeast 432 497 24,000  Level Washington Center
09:49PM 39.0694 -76.3214 42° Northeast 438 504 24,000  Level Washington Center
09:50PM 39.1619 -76.2153 42° Northeast 443 510 24,000 -60 Level Washington Center
09:51PM 39.2456 -76.1222 41° Northeast 443 510 23,900 -1,140 Descending Washington Center
09:53PM 39.4667 -75.9167 36° Northeast 423 487 20,600 -1,800 Descending Philadelphia TRACON
09:54PM 39.5500 -75.8333 38° Northeast 404 465 18,500 -2,100 Descending Philadelphia TRACON
09:55PM 39.6333 -75.7500 38° Northeast 392 451 16,500 -2,100 Descending Philadelphia TRACON
09:56PM 39.7333 -75.6667 33° Northeast 373 429 14,400 -1,800 Descending Philadelphia TRACON
09:57PM 39.8167 -75.5833 38° Northeast 348 400 13,000 -720 Descending Philadelphia TRACON
09:58PM 39.8833 -75.5167 37° Northeast 353 406 13,000 -60 Level Philadelphia TRACON
09:59PM 39.9667 -75.4500 32° Northeast 364 419 12,900 -60 Descending Philadelphia TRACON
10:00PM 40.0500 -75.3667 37° Northeast 356 410 12,900  Level Philadelphia TRACON
10:01PM 40.1167 -75.3000 37° Northeast 359 413 13,000 -600 Climbing Philadelphia TRACON
10:02PM 40.2000 -75.2167 37° Northeast 352 405 11,800 -1,380 Descending Philadelphia TRACON
10:04PM 40.3167 -75.1000 37° Northeast 315 362 9,400 -1,560 Descending New York TRACON
10:05PM 40.3833 -75.0333 37° Northeast 295 339 7,700 -1,200 Descending New York TRACON
10:06PM 40.4333 -74.9500 52° Northeast 284 327 7,100 -900 Descending New York TRACON
10:07PM 40.4833 -74.8833 45° Northeast 283 326 5,900 -1,440 Descending New York TRACON
10:07PM 40.5333 -74.8167 45° Northeast 273 314 4,400 -900 Descending New York TRACON
10:09PM 40.5833 -74.7333 52° Northeast 262 302 4,100 -180 Descending New York TRACON
10:09PM 40.6500 -74.6833 30° Northeast 277 319 4,100  Level New York TRACON
10:11PM 40.7167 -74.6333 30° Northeast 276 318 4,100 -300 Level New York TRACON
10:11PM 40.7833 -74.5833 30° Northeast 274 315 3,500 -540 Descending New York TRACON
10:13PM 40.8500 -74.5167 37° Northeast 274 315 3,100 -240 Descending New York TRACON
10:14PM 40.9000 -74.4667 37° Northeast 253 291 3,000  Descending New York TRACON
10:15PM 40.9500 -74.4167 37° Northeast 221 254 3,100 -360 Climbing New York TRACON
10:16PM 40.9667 -74.3500 72° East 212 244 2,300 -540 Descending New York TRACON
10:17PM 40.9500 -74.2833 108° East 184 212 2,000 -180 Descending New York TRACON
10:18PM 40.9167 -74.3000 201° Southwest 133 153 2,000  Level New York TRACON
10:19PM 40.9000 -74.3167 217° Southwest 124 143 2,000 -120 Level New York TRACON
10:20PM 40.8667 -74.3500 217° Southwest 121 139 1,800 -420 Descending New York TRACON
10:21PM 40.8500 -74.3667 217° Southwest 109 125 1,200 -600 Descending New York TRACON
10:23PM 40.7993 -74.4149 192° South  Level Estimated
10:30PM 40.7993 -74.4149 192° South  Level Estimated
10:31PM 40.7993 -74.4149 192° South  Level Estimated